sensor_id;sensor_type;location;lat;lon;timestamp;temperature;humidity
20442;DHT22;10380;52.102;20.614;2023-12-22T00:00:41;6.10;99.90
20442;DHT22;10380;52.102;20.614;2023-12-22T00:03:08;6.00;99.90
20442;DHT22;10380;52.102;20.614;2023-12-22T00:05:35;6.00;99.90
20442;DHT22;10380;52.102;20.614;2023-12-22T00:08:02;5.90;99.90
20442;DHT22;10380;52.102;20.614;2023-12-22T00:10:29;5.90;99.90
20442;DHT22;10380;52.102;20.614;2023-12-22T00:12:56;5.80;99.90
20442;DHT22;10380;52.102;20.614;2023-12-22T00:15:23;5.80;99.90
20442;DHT22;10380;52.102;20.614;2023-12-22T00:17:49;5.70;99.90
20442;DHT22;10380;52.102;20.614;2023-12-22T00:20:18;5.60;99.90
20442;DHT22;10380;52.102;20.614;2023-12-22T00:22:45;5.60;99.90
20442;DHT22;10380;52.102;20.614;2023-12-22T00:25:13;5.60;99.90
20442;DHT22;10380;52.102;20.614;2023-12-22T00:27:40;5.50;99.90
20442;DHT22;10380;52.102;20.614;2023-12-22T00:30:07;5.40;99.90
20442;DHT22;10380;52.102;20.614;2023-12-22T00:32:34;5.40;99.90
20442;DHT22;10380;52.102;20.614;2023-12-22T00:35:01;5.40;99.90
20442;DHT22;10380;52.102;20.614;2023-12-22T00:37:28;5.30;99.90
20442;DHT22;10380;52.102;20.614;2023-12-22T00:39:55;5.30;99.90
20442;DHT22;10380;52.102;20.614;2023-12-22T00:42:24;5.30;99.90
20442;DHT22;10380;52.102;20.614;2023-12-22T00:44:51;5.30;99.90
20442;DHT22;10380;52.102;20.614;2023-12-22T00:47:18;5.20;99.90
20442;DHT22;10380;52.102;20.614;2023-12-22T00:49:45;5.20;99.90
20442;DHT22;10380;52.102;20.614;2023-12-22T00:52:12;5.20;99.90
20442;DHT22;10380;52.102;20.614;2023-12-22T00:54:39;5.20;99.90
20442;DHT22;10380;52.102;20.614;2023-12-22T00:57:06;5.20;99.90
20442;DHT22;10380;52.102;20.614;2023-12-22T00:59:33;5.20;99.90
20442;DHT22;10380;52.102;20.614;2023-12-22T01:02:00;5.20;99.90
20442;DHT22;10380;52.102;20.614;2023-12-22T01:04:26;5.20;99.90
20442;DHT22;10380;52.102;20.614;2023-12-22T01:06:54;7.30;99.90
20442;DHT22;10380;52.102;20.614;2023-12-22T01:09:20;5.30;99.90
20442;DHT22;10380;52.102;20.614;2023-12-22T01:11:47;5.20;99.90
20442;DHT22;10380;52.102;20.614;2023-12-22T01:14:14;5.20;99.90
20442;DHT22;10380;52.102;20.614;2023-12-22T01:16:41;5.20;99.90
20442;DHT22;10380;52.102;20.614;2023-12-22T01:19:08;5.20;99.90
20442;DHT22;10380;52.102;20.614;2023-12-22T01:21:37;5.20;99.90
20442;DHT22;10380;52.102;20.614;2023-12-22T01:24:03;5.20;99.90
20442;DHT22;10380;52.102;20.614;2023-12-22T01:26:31;5.20;99.90
20442;DHT22;10380;52.102;20.614;2023-12-22T01:28:57;5.20;99.90
20442;DHT22;10380;52.102;20.614;2023-12-22T01:31:24;5.30;99.90
20442;DHT22;10380;52.102;20.614;2023-12-22T01:33:51;5.30;99.90
20442;DHT22;10380;52.102;20.614;2023-12-22T01:36:18;5.30;99.90
20442;DHT22;10380;52.102;20.614;2023-12-22T01:38:45;5.30;99.90
20442;DHT22;10380;52.102;20.614;2023-12-22T01:41:12;5.30;99.90
20442;DHT22;10380;52.102;20.614;2023-12-22T01:43:39;5.30;99.90
20442;DHT22;10380;52.102;20.614;2023-12-22T01:46:06;5.30;99.90
20442;DHT22;10380;52.102;20.614;2023-12-22T01:48:36;5.30;99.90
20442;DHT22;10380;52.102;20.614;2023-12-22T01:51:04;5.30;99.90
20442;DHT22;10380;52.102;20.614;2023-12-22T01:53:32;5.30;99.90
20442;DHT22;10380;52.102;20.614;2023-12-22T01:56:03;5.30;99.90
20442;DHT22;10380;52.102;20.614;2023-12-22T01:58:32;5.40;99.90
20442;DHT22;10380;52.102;20.614;2023-12-22T02:00:59;5.40;99.90
20442;DHT22;10380;52.102;20.614;2023-12-22T02:03:28;5.40;99.90
20442;DHT22;10380;52.102;20.614;2023-12-22T02:05:55;5.40;99.90
20442;DHT22;10380;52.102;20.614;2023-12-22T02:08:22;5.30;99.90
20442;DHT22;10380;52.102;20.614;2023-12-22T02:10:50;5.40;99.90
20442;DHT22;10380;52.102;20.614;2023-12-22T02:13:17;5.40;99.90
20442;DHT22;10380;52.102;20.614;2023-12-22T02:15:47;5.40;99.90
20442;DHT22;10380;52.102;20.614;2023-12-22T02:18:21;5.40;99.90
20442;DHT22;10380;52.102;20.614;2023-12-22T02:20:53;5.40;99.90
20442;DHT22;10380;52.102;20.614;2023-12-22T02:23:20;5.40;99.90
20442;DHT22;10380;52.102;20.614;2023-12-22T02:25:48;5.50;99.90
20442;DHT22;10380;52.102;20.614;2023-12-22T02:28:17;5.40;99.90
20442;DHT22;10380;52.102;20.614;2023-12-22T02:30:54;5.40;99.90
20442;DHT22;10380;52.102;20.614;2023-12-22T02:33:24;5.40;99.90
20442;DHT22;10380;52.102;20.614;2023-12-22T02:35:54;5.40;99.90
20442;DHT22;10380;52.102;20.614;2023-12-22T02:38:24;5.40;99.90
20442;DHT22;10380;52.102;20.614;2023-12-22T02:40:52;5.40;99.90
20442;DHT22;10380;52.102;20.614;2023-12-22T02:43:19;5.40;99.90
20442;DHT22;10380;52.102;20.614;2023-12-22T02:45:50;5.30;99.90
20442;DHT22;10380;52.102;20.614;2023-12-22T02:48:17;5.40;99.90
20442;DHT22;10380;52.102;20.614;2023-12-22T02:50:45;5.40;99.90
20442;DHT22;10380;52.102;20.614;2023-12-22T02:53:12;5.40;99.90
20442;DHT22;10380;52.102;20.614;2023-12-22T02:55:38;5.30;99.90
20442;DHT22;10380;52.102;20.614;2023-12-22T02:58:05;5.40;99.90
20442;DHT22;10380;52.102;20.614;2023-12-22T03:00:32;5.40;99.90
20442;DHT22;10380;52.102;20.614;2023-12-22T03:02:59;5.40;99.90
20442;DHT22;10380;52.102;20.614;2023-12-22T03:05:26;5.40;99.90
20442;DHT22;10380;52.102;20.614;2023-12-22T03:07:53;5.40;99.90
20442;DHT22;10380;52.102;20.614;2023-12-22T03:10:20;5.30;99.90
20442;DHT22;10380;52.102;20.614;2023-12-22T03:12:47;5.20;99.90
20442;DHT22;10380;52.102;20.614;2023-12-22T03:15:14;5.40;99.90
20442;DHT22;10380;52.102;20.614;2023-12-22T03:17:41;5.10;99.90
20442;DHT22;10380;52.102;20.614;2023-12-22T03:20:08;5.00;99.90
20442;DHT22;10380;52.102;20.614;2023-12-22T03:22:36;4.90;99.90
20442;DHT22;10380;52.102;20.614;2023-12-22T03:25:03;4.90;99.90
20442;DHT22;10380;52.102;20.614;2023-12-22T03:27:30;4.90;99.90
20442;DHT22;10380;52.102;20.614;2023-12-22T03:29:57;4.90;99.90
20442;DHT22;10380;52.102;20.614;2023-12-22T03:32:24;4.80;99.90
20442;DHT22;10380;52.102;20.614;2023-12-22T03:34:51;4.80;99.90
20442;DHT22;10380;52.102;20.614;2023-12-22T03:37:18;4.80;99.90
20442;DHT22;10380;52.102;20.614;2023-12-22T03:39:45;4.80;99.90
20442;DHT22;10380;52.102;20.614;2023-12-22T03:42:12;4.80;99.90
20442;DHT22;10380;52.102;20.614;2023-12-22T03:44:38;4.80;99.90
20442;DHT22;10380;52.102;20.614;2023-12-22T03:47:05;4.80;99.90
20442;DHT22;10380;52.102;20.614;2023-12-22T03:49:32;4.80;99.90
20442;DHT22;10380;52.102;20.614;2023-12-22T03:51:59;4.80;99.90
20442;DHT22;10380;52.102;20.614;2023-12-22T03:54:26;4.80;99.90
20442;DHT22;10380;52.102;20.614;2023-12-22T03:56:53;4.80;99.90
20442;DHT22;10380;52.102;20.614;2023-12-22T03:59:20;4.80;99.90
20442;DHT22;10380;52.102;20.614;2023-12-22T04:01:52;4.80;99.90
20442;DHT22;10380;52.102;20.614;2023-12-22T04:04:22;4.80;99.90
20442;DHT22;10380;52.102;20.614;2023-12-22T04:06:50;4.80;99.90
20442;DHT22;10380;52.102;20.614;2023-12-22T04:09:17;4.80;99.90
20442;DHT22;10380;52.102;20.614;2023-12-22T04:11:44;4.80;99.90
20442;DHT22;10380;52.102;20.614;2023-12-22T04:14:10;4.80;99.90
20442;DHT22;10380;52.102;20.614;2023-12-22T04:16:37;4.80;99.90
20442;DHT22;10380;52.102;20.614;2023-12-22T04:19:04;4.70;99.90
20442;DHT22;10380;52.102;20.614;2023-12-22T04:21:35;4.70;99.90
20442;DHT22;10380;52.102;20.614;2023-12-22T04:24:02;4.70;99.90
20442;DHT22;10380;52.102;20.614;2023-12-22T04:26:29;4.70;99.90
20442;DHT22;10380;52.102;20.614;2023-12-22T04:28:56;4.70;99.90
20442;DHT22;10380;52.102;20.614;2023-12-22T04:31:23;4.70;99.90
20442;DHT22;10380;52.102;20.614;2023-12-22T04:33:50;4.70;99.90
20442;DHT22;10380;52.102;20.614;2023-12-22T04:36:19;4.60;99.90
20442;DHT22;10380;52.102;20.614;2023-12-22T04:38:46;4.50;99.90
20442;DHT22;10380;52.102;20.614;2023-12-22T04:41:13;4.50;99.90
20442;DHT22;10380;52.102;20.614;2023-12-22T04:43:41;4.40;99.90
20442;DHT22;10380;52.102;20.614;2023-12-22T04:46:08;4.30;99.90
20442;DHT22;10380;52.102;20.614;2023-12-22T04:48:35;4.30;99.90
20442;DHT22;10380;52.102;20.614;2023-12-22T04:51:02;4.10;99.90
20442;DHT22;10380;52.102;20.614;2023-12-22T04:53:29;4.20;99.90
20442;DHT22;10380;52.102;20.614;2023-12-22T04:55:56;4.10;99.90
20442;DHT22;10380;52.102;20.614;2023-12-22T04:58:23;4.10;99.90
20442;DHT22;10380;52.102;20.614;2023-12-22T05:00:51;4.10;99.90
20442;DHT22;10380;52.102;20.614;2023-12-22T05:03:17;4.00;99.90
20442;DHT22;10380;52.102;20.614;2023-12-22T05:05:44;3.90;99.90
20442;DHT22;10380;52.102;20.614;2023-12-22T05:08:11;3.90;99.90
20442;DHT22;10380;52.102;20.614;2023-12-22T05:10:39;3.80;99.90
20442;DHT22;10380;52.102;20.614;2023-12-22T05:13:05;3.80;99.90
20442;DHT22;10380;52.102;20.614;2023-12-22T05:15:33;3.80;99.90
20442;DHT22;10380;52.102;20.614;2023-12-22T05:17:59;3.80;99.90
20442;DHT22;10380;52.102;20.614;2023-12-22T05:20:26;3.80;99.90
20442;DHT22;10380;52.102;20.614;2023-12-22T05:22:54;3.80;99.90
20442;DHT22;10380;52.102;20.614;2023-12-22T05:25:21;3.80;99.90
20442;DHT22;10380;52.102;20.614;2023-12-22T05:27:48;3.80;99.90
20442;DHT22;10380;52.102;20.614;2023-12-22T05:30:15;3.80;99.90
20442;DHT22;10380;52.102;20.614;2023-12-22T05:32:42;3.80;99.90
20442;DHT22;10380;52.102;20.614;2023-12-22T05:35:11;3.80;99.90
20442;DHT22;10380;52.102;20.614;2023-12-22T05:37:38;3.80;99.90
20442;DHT22;10380;52.102;20.614;2023-12-22T05:40:05;3.80;99.90
20442;DHT22;10380;52.102;20.614;2023-12-22T05:42:36;3.80;99.90
20442;DHT22;10380;52.102;20.614;2023-12-22T05:45:04;3.80;99.90
20442;DHT22;10380;52.102;20.614;2023-12-22T05:47:31;3.80;99.90
20442;DHT22;10380;52.102;20.614;2023-12-22T05:49:58;3.80;99.90
20442;DHT22;10380;52.102;20.614;2023-12-22T05:52:25;3.80;99.90
20442;DHT22;10380;52.102;20.614;2023-12-22T05:54:52;3.80;99.90
20442;DHT22;10380;52.102;20.614;2023-12-22T05:57:19;3.90;99.90
20442;DHT22;10380;52.102;20.614;2023-12-22T05:59:45;3.90;99.90
20442;DHT22;10380;52.102;20.614;2023-12-22T06:02:13;3.90;99.90
20442;DHT22;10380;52.102;20.614;2023-12-22T06:04:40;3.90;99.90
20442;DHT22;10380;52.102;20.614;2023-12-22T06:07:08;4.00;99.90
20442;DHT22;10380;52.102;20.614;2023-12-22T06:09:34;4.10;99.90
20442;DHT22;10380;52.102;20.614;2023-12-22T06:12:01;4.10;99.90
20442;DHT22;10380;52.102;20.614;2023-12-22T06:14:28;4.20;99.90
20442;DHT22;10380;52.102;20.614;2023-12-22T06:16:55;4.30;99.90
20442;DHT22;10380;52.102;20.614;2023-12-22T06:19:25;4.30;99.90
20442;DHT22;10380;52.102;20.614;2023-12-22T06:21:55;4.40;99.90
20442;DHT22;10380;52.102;20.614;2023-12-22T06:24:23;4.40;99.90
20442;DHT22;10380;52.102;20.614;2023-12-22T06:26:50;4.50;99.90
20442;DHT22;10380;52.102;20.614;2023-12-22T06:29:17;4.50;99.90
20442;DHT22;10380;52.102;20.614;2023-12-22T06:31:44;4.50;99.90
20442;DHT22;10380;52.102;20.614;2023-12-22T06:34:11;4.60;99.90
20442;DHT22;10380;52.102;20.614;2023-12-22T06:36:38;4.60;99.90
20442;DHT22;10380;52.102;20.614;2023-12-22T06:39:05;4.60;99.90
20442;DHT22;10380;52.102;20.614;2023-12-22T06:41:32;4.60;99.90
20442;DHT22;10380;52.102;20.614;2023-12-22T06:44:00;4.70;99.90
20442;DHT22;10380;52.102;20.614;2023-12-22T06:46:28;4.70;99.90
20442;DHT22;10380;52.102;20.614;2023-12-22T06:48:56;4.60;99.90
20442;DHT22;10380;52.102;20.614;2023-12-22T06:51:26;4.60;99.90
20442;DHT22;10380;52.102;20.614;2023-12-22T06:53:54;4.60;99.90
20442;DHT22;10380;52.102;20.614;2023-12-22T06:56:24;4.60;99.90
20442;DHT22;10380;52.102;20.614;2023-12-22T06:58:53;4.50;99.90
20442;DHT22;10380;52.102;20.614;2023-12-22T07:01:25;4.50;99.90
20442;DHT22;10380;52.102;20.614;2023-12-22T07:03:52;4.40;99.90
20442;DHT22;10380;52.102;20.614;2023-12-22T07:06:20;4.40;99.90
20442;DHT22;10380;52.102;20.614;2023-12-22T07:11:43;4.30;99.90
20442;DHT22;10380;52.102;20.614;2023-12-22T07:14:10;4.30;99.90
20442;DHT22;10380;52.102;20.614;2023-12-22T07:16:38;4.30;99.90
20442;DHT22;10380;52.102;20.614;2023-12-22T07:19:06;4.30;99.90
20442;DHT22;10380;52.102;20.614;2023-12-22T07:21:33;4.30;99.90
20442;DHT22;10380;52.102;20.614;2023-12-22T07:24:00;4.20;99.90
20442;DHT22;10380;52.102;20.614;2023-12-22T07:26:27;4.20;99.90
20442;DHT22;10380;52.102;20.614;2023-12-22T07:28:54;4.20;99.90
20442;DHT22;10380;52.102;20.614;2023-12-22T07:31:22;4.30;99.90
20442;DHT22;10380;52.102;20.614;2023-12-22T07:33:49;4.10;99.90
20442;DHT22;10380;52.102;20.614;2023-12-22T07:36:16;4.00;99.90
20442;DHT22;10380;52.102;20.614;2023-12-22T07:38:46;4.00;99.90
20442;DHT22;10380;52.102;20.614;2023-12-22T07:41:13;3.90;99.90
20442;DHT22;10380;52.102;20.614;2023-12-22T07:43:40;3.90;99.90
20442;DHT22;10380;52.102;20.614;2023-12-22T07:46:08;3.90;99.90
20442;DHT22;10380;52.102;20.614;2023-12-22T07:48:43;3.80;99.90
20442;DHT22;10380;52.102;20.614;2023-12-22T07:51:12;3.80;99.90
20442;DHT22;10380;52.102;20.614;2023-12-22T07:53:39;3.80;99.90
20442;DHT22;10380;52.102;20.614;2023-12-22T07:56:08;3.80;99.90
20442;DHT22;10380;52.102;20.614;2023-12-22T07:58:35;3.80;99.90
20442;DHT22;10380;52.102;20.614;2023-12-22T08:01:02;3.70;99.90
20442;DHT22;10380;52.102;20.614;2023-12-22T08:03:29;3.70;99.90
20442;DHT22;10380;52.102;20.614;2023-12-22T08:05:57;3.70;99.90
20442;DHT22;10380;52.102;20.614;2023-12-22T08:08:24;3.60;99.90
20442;DHT22;10380;52.102;20.614;2023-12-22T08:10:51;3.70;99.90
20442;DHT22;10380;52.102;20.614;2023-12-22T08:13:17;3.60;99.90
20442;DHT22;10380;52.102;20.614;2023-12-22T08:15:45;3.70;99.90
20442;DHT22;10380;52.102;20.614;2023-12-22T08:18:12;3.60;99.90
20442;DHT22;10380;52.102;20.614;2023-12-22T08:20:40;3.70;99.90
20442;DHT22;10380;52.102;20.614;2023-12-22T08:23:10;3.60;99.90
20442;DHT22;10380;52.102;20.614;2023-12-22T08:25:40;3.60;99.90
20442;DHT22;10380;52.102;20.614;2023-12-22T08:28:10;3.60;99.90
20442;DHT22;10380;52.102;20.614;2023-12-22T08:30:39;3.60;99.90
20442;DHT22;10380;52.102;20.614;2023-12-22T08:33:06;3.60;99.90
20442;DHT22;10380;52.102;20.614;2023-12-22T08:35:33;3.60;99.90
20442;DHT22;10380;52.102;20.614;2023-12-22T08:38:00;3.60;99.90
20442;DHT22;10380;52.102;20.614;2023-12-22T08:40:27;3.70;99.90
20442;DHT22;10380;52.102;20.614;2023-12-22T08:42:55;3.70;99.90
20442;DHT22;10380;52.102;20.614;2023-12-22T08:45:27;3.70;99.90
20442;DHT22;10380;52.102;20.614;2023-12-22T08:47:57;3.80;99.90
20442;DHT22;10380;52.102;20.614;2023-12-22T08:50:24;3.80;99.90
20442;DHT22;10380;52.102;20.614;2023-12-22T08:52:52;3.80;99.90
20442;DHT22;10380;52.102;20.614;2023-12-22T08:55:19;3.90;99.90
20442;DHT22;10380;52.102;20.614;2023-12-22T08:57:46;4.00;99.90
20442;DHT22;10380;52.102;20.614;2023-12-22T09:00:25;4.00;99.90
20442;DHT22;10380;52.102;20.614;2023-12-22T09:02:52;4.00;99.90
20442;DHT22;10380;52.102;20.614;2023-12-22T09:05:21;4.00;99.90
20442;DHT22;10380;52.102;20.614;2023-12-22T09:07:48;4.10;99.90
20442;DHT22;10380;52.102;20.614;2023-12-22T09:10:17;4.10;99.90
20442;DHT22;10380;52.102;20.614;2023-12-22T09:12:44;4.20;99.90
20442;DHT22;10380;52.102;20.614;2023-12-22T09:15:10;4.20;99.90
20442;DHT22;10380;52.102;20.614;2023-12-22T09:17:37;4.30;99.90
20442;DHT22;10380;52.102;20.614;2023-12-22T09:20:07;4.30;99.90
20442;DHT22;10380;52.102;20.614;2023-12-22T09:22:34;4.30;99.90
20442;DHT22;10380;52.102;20.614;2023-12-22T09:25:01;4.90;99.90
20442;DHT22;10380;52.102;20.614;2023-12-22T09:27:28;4.50;99.90
20442;DHT22;10380;52.102;20.614;2023-12-22T09:29:57;4.50;99.90
20442;DHT22;10380;52.102;20.614;2023-12-22T09:32:24;4.60;99.90
20442;DHT22;10380;52.102;20.614;2023-12-22T09:34:51;4.60;99.90
20442;DHT22;10380;52.102;20.614;2023-12-22T09:37:18;4.70;99.90
20442;DHT22;10380;52.102;20.614;2023-12-22T09:39:45;4.70;99.90
20442;DHT22;10380;52.102;20.614;2023-12-22T09:42:12;4.80;99.90
20442;DHT22;10380;52.102;20.614;2023-12-22T09:44:39;4.90;99.90
20442;DHT22;10380;52.102;20.614;2023-12-22T09:47:09;5.00;99.90
20442;DHT22;10380;52.102;20.614;2023-12-22T09:49:39;5.00;99.90
20442;DHT22;10380;52.102;20.614;2023-12-22T09:52:08;5.00;99.90
20442;DHT22;10380;52.102;20.614;2023-12-22T09:54:36;5.00;99.90
20442;DHT22;10380;52.102;20.614;2023-12-22T09:57:05;4.90;99.90
20442;DHT22;10380;52.102;20.614;2023-12-22T09:59:49;4.90;99.90
20442;DHT22;10380;52.102;20.614;2023-12-22T10:02:18;4.90;99.90
20442;DHT22;10380;52.102;20.614;2023-12-22T10:04:45;4.90;99.90
20442;DHT22;10380;52.102;20.614;2023-12-22T10:07:13;4.90;99.90
20442;DHT22;10380;52.102;20.614;2023-12-22T10:09:42;4.90;99.90
20442;DHT22;10380;52.102;20.614;2023-12-22T10:12:13;4.80;99.90
20442;DHT22;10380;52.102;20.614;2023-12-22T10:14:41;4.80;99.90
20442;DHT22;10380;52.102;20.614;2023-12-22T10:17:09;4.50;99.90
20442;DHT22;10380;52.102;20.614;2023-12-22T10:19:36;3.80;99.90
20442;DHT22;10380;52.102;20.614;2023-12-22T10:22:03;3.10;99.90
20442;DHT22;10380;52.102;20.614;2023-12-22T10:24:44;2.20;99.90
20442;DHT22;10380;52.102;20.614;2023-12-22T10:27:15;1.80;99.90
20442;DHT22;10380;52.102;20.614;2023-12-22T10:29:43;1.40;99.90
20442;DHT22;10380;52.102;20.614;2023-12-22T10:32:10;1.20;99.90
20442;DHT22;10380;52.102;20.614;2023-12-22T10:34:37;1.10;99.90
20442;DHT22;10380;52.102;20.614;2023-12-22T10:37:04;1.00;99.90
20442;DHT22;10380;52.102;20.614;2023-12-22T10:39:32;0.90;99.90
20442;DHT22;10380;52.102;20.614;2023-12-22T10:41:59;0.90;99.90
20442;DHT22;10380;52.102;20.614;2023-12-22T10:44:28;0.80;99.90
20442;DHT22;10380;52.102;20.614;2023-12-22T10:46:56;0.80;99.90
20442;DHT22;10380;52.102;20.614;2023-12-22T10:49:24;0.90;99.90
20442;DHT22;10380;52.102;20.614;2023-12-22T10:51:52;0.90;99.90
20442;DHT22;10380;52.102;20.614;2023-12-22T10:54:19;3.40;99.90
20442;DHT22;10380;52.102;20.614;2023-12-22T10:56:47;0.90;99.90
20442;DHT22;10380;52.102;20.614;2023-12-22T10:59:18;1.00;99.90
20442;DHT22;10380;52.102;20.614;2023-12-22T11:01:45;1.00;99.90
20442;DHT22;10380;52.102;20.614;2023-12-22T11:04:18;1.00;99.90
20442;DHT22;10380;52.102;20.614;2023-12-22T11:06:49;1.00;99.90
20442;DHT22;10380;52.102;20.614;2023-12-22T11:09:17;1.10;99.90
20442;DHT22;10380;52.102;20.614;2023-12-22T11:11:47;1.10;99.90
20442;DHT22;10380;52.102;20.614;2023-12-22T11:14:16;1.10;99.90
20442;DHT22;10380;52.102;20.614;2023-12-22T11:16:44;1.10;99.90
20442;DHT22;10380;52.102;20.614;2023-12-22T11:19:15;1.10;99.90
20442;DHT22;10380;52.102;20.614;2023-12-22T11:21:43;1.10;99.90
20442;DHT22;10380;52.102;20.614;2023-12-22T11:24:13;1.00;99.90
20442;DHT22;10380;52.102;20.614;2023-12-22T11:26:41;1.10;99.90
20442;DHT22;10380;52.102;20.614;2023-12-22T11:29:09;1.10;99.90
20442;DHT22;10380;52.102;20.614;2023-12-22T11:31:37;1.20;99.90
20442;DHT22;10380;52.102;20.614;2023-12-22T11:34:06;1.20;99.90
20442;DHT22;10380;52.102;20.614;2023-12-22T11:36:43;1.20;99.90
20442;DHT22;10380;52.102;20.614;2023-12-22T11:39:11;1.30;99.90
20442;DHT22;10380;52.102;20.614;2023-12-22T11:41:39;1.30;99.90
20442;DHT22;10380;52.102;20.614;2023-12-22T11:44:07;1.40;99.90
20442;DHT22;10380;52.102;20.614;2023-12-22T11:46:35;1.40;99.90
20442;DHT22;10380;52.102;20.614;2023-12-22T11:49:02;1.50;99.90
20442;DHT22;10380;52.102;20.614;2023-12-22T11:51:34;1.60;99.90
20442;DHT22;10380;52.102;20.614;2023-12-22T11:54:02;1.60;99.90
20442;DHT22;10380;52.102;20.614;2023-12-22T11:56:29;1.60;99.90
20442;DHT22;10380;52.102;20.614;2023-12-22T11:58:58;1.70;99.90
20442;DHT22;10380;52.102;20.614;2023-12-22T12:01:27;1.70;99.90
20442;DHT22;10380;52.102;20.614;2023-12-22T12:04:02;1.70;99.90
20442;DHT22;10380;52.102;20.614;2023-12-22T12:06:33;1.70;99.90
20442;DHT22;10380;52.102;20.614;2023-12-22T12:09:04;1.80;99.90
20442;DHT22;10380;52.102;20.614;2023-12-22T12:14:24;1.80;99.90
20442;DHT22;10380;52.102;20.614;2023-12-22T12:17:03;1.80;99.90
20442;DHT22;10380;52.102;20.614;2023-12-22T12:19:34;1.90;99.90
20442;DHT22;10380;52.102;20.614;2023-12-22T12:22:01;1.90;99.90
20442;DHT22;10380;52.102;20.614;2023-12-22T12:24:29;1.90;99.90
20442;DHT22;10380;52.102;20.614;2023-12-22T12:26:56;1.90;99.90
20442;DHT22;10380;52.102;20.614;2023-12-22T12:29:23;2.00;99.90
20442;DHT22;10380;52.102;20.614;2023-12-22T12:31:51;2.00;99.90
20442;DHT22;10380;52.102;20.614;2023-12-22T12:34:18;2.00;99.90
20442;DHT22;10380;52.102;20.614;2023-12-22T12:36:48;2.00;99.90
20442;DHT22;10380;52.102;20.614;2023-12-22T12:39:21;2.10;99.90
20442;DHT22;10380;52.102;20.614;2023-12-22T12:41:53;2.00;99.90
20442;DHT22;10380;52.102;20.614;2023-12-22T12:44:22;2.00;99.90
20442;DHT22;10380;52.102;20.614;2023-12-22T12:46:49;2.00;99.90
20442;DHT22;10380;52.102;20.614;2023-12-22T12:49:18;1.90;99.90
20442;DHT22;10380;52.102;20.614;2023-12-22T12:51:47;1.90;99.90
20442;DHT22;10380;52.102;20.614;2023-12-22T12:54:15;1.90;99.90
20442;DHT22;10380;52.102;20.614;2023-12-22T12:56:46;1.90;99.90
20442;DHT22;10380;52.102;20.614;2023-12-22T12:59:15;1.80;99.90
20442;DHT22;10380;52.102;20.614;2023-12-22T13:01:45;1.80;99.90
20442;DHT22;10380;52.102;20.614;2023-12-22T13:04:13;1.80;99.90
20442;DHT22;10380;52.102;20.614;2023-12-22T13:06:48;1.80;99.90
20442;DHT22;10380;52.102;20.614;2023-12-22T13:09:15;1.80;99.90
20442;DHT22;10380;52.102;20.614;2023-12-22T13:11:44;1.80;99.90
20442;DHT22;10380;52.102;20.614;2023-12-22T13:14:21;1.80;99.90
20442;DHT22;10380;52.102;20.614;2023-12-22T13:16:50;1.80;99.90
20442;DHT22;10380;52.102;20.614;2023-12-22T13:19:18;1.80;99.90
20442;DHT22;10380;52.102;20.614;2023-12-22T13:21:45;1.80;99.90
20442;DHT22;10380;52.102;20.614;2023-12-22T13:24:14;1.80;99.90
20442;DHT22;10380;52.102;20.614;2023-12-22T13:26:43;1.80;99.90
20442;DHT22;10380;52.102;20.614;2023-12-22T13:29:11;1.80;99.90
20442;DHT22;10380;52.102;20.614;2023-12-22T13:31:40;1.80;99.90
20442;DHT22;10380;52.102;20.614;2023-12-22T13:34:11;1.90;99.90
20442;DHT22;10380;52.102;20.614;2023-12-22T13:36:40;1.80;99.90
20442;DHT22;10380;52.102;20.614;2023-12-22T13:39:09;1.70;99.90
20442;DHT22;10380;52.102;20.614;2023-12-22T13:41:39;1.90;99.90
20442;DHT22;10380;52.102;20.614;2023-12-22T13:44:13;1.90;99.90
20442;DHT22;10380;52.102;20.614;2023-12-22T13:46:41;1.90;99.90
20442;DHT22;10380;52.102;20.614;2023-12-22T13:49:09;1.90;99.90
20442;DHT22;10380;52.102;20.614;2023-12-22T13:51:43;1.80;99.90
20442;DHT22;10380;52.102;20.614;2023-12-22T13:54:11;1.90;99.90
20442;DHT22;10380;52.102;20.614;2023-12-22T13:56:39;1.90;99.90
20442;DHT22;10380;52.102;20.614;2023-12-22T13:59:10;1.80;99.90
20442;DHT22;10380;52.102;20.614;2023-12-22T14:01:38;1.80;99.90
20442;DHT22;10380;52.102;20.614;2023-12-22T14:04:05;1.80;99.90
20442;DHT22;10380;52.102;20.614;2023-12-22T14:06:32;1.90;99.90
20442;DHT22;10380;52.102;20.614;2023-12-22T14:08:59;1.80;99.90
20442;DHT22;10380;52.102;20.614;2023-12-22T14:11:26;1.80;99.90
20442;DHT22;10380;52.102;20.614;2023-12-22T14:13:57;1.80;99.90
20442;DHT22;10380;52.102;20.614;2023-12-22T14:16:24;1.80;99.90
20442;DHT22;10380;52.102;20.614;2023-12-22T14:18:51;1.80;99.90
20442;DHT22;10380;52.102;20.614;2023-12-22T14:21:18;1.70;99.90
20442;DHT22;10380;52.102;20.614;2023-12-22T14:23:45;1.70;99.90
20442;DHT22;10380;52.102;20.614;2023-12-22T14:26:12;1.70;99.90
20442;DHT22;10380;52.102;20.614;2023-12-22T14:28:39;1.60;99.90
20442;DHT22;10380;52.102;20.614;2023-12-22T14:31:06;1.60;99.90
20442;DHT22;10380;52.102;20.614;2023-12-22T14:33:33;1.60;99.90
20442;DHT22;10380;52.102;20.614;2023-12-22T14:36:00;1.60;99.90
20442;DHT22;10380;52.102;20.614;2023-12-22T14:38:27;1.60;99.90
20442;DHT22;10380;52.102;20.614;2023-12-22T14:40:54;1.50;99.90
20442;DHT22;10380;52.102;20.614;2023-12-22T14:43:21;1.50;99.90
20442;DHT22;10380;52.102;20.614;2023-12-22T14:45:48;1.50;99.90
20442;DHT22;10380;52.102;20.614;2023-12-22T14:48:14;1.50;99.90
20442;DHT22;10380;52.102;20.614;2023-12-22T14:50:41;1.50;99.90
20442;DHT22;10380;52.102;20.614;2023-12-22T14:53:08;1.50;99.90
20442;DHT22;10380;52.102;20.614;2023-12-22T14:55:39;1.50;99.90
20442;DHT22;10380;52.102;20.614;2023-12-22T14:58:06;1.60;99.90
20442;DHT22;10380;52.102;20.614;2023-12-22T15:00:34;1.60;99.90
20442;DHT22;10380;52.102;20.614;2023-12-22T15:03:01;1.60;99.90
20442;DHT22;10380;52.102;20.614;2023-12-22T15:05:28;1.60;99.90
20442;DHT22;10380;52.102;20.614;2023-12-22T15:08:01;1.70;99.90
20442;DHT22;10380;52.102;20.614;2023-12-22T15:10:29;1.70;99.90
20442;DHT22;10380;52.102;20.614;2023-12-22T15:12:55;1.70;99.90
20442;DHT22;10380;52.102;20.614;2023-12-22T15:15:22;1.80;99.90
20442;DHT22;10380;52.102;20.614;2023-12-22T15:17:49;1.80;99.90
20442;DHT22;10380;52.102;20.614;2023-12-22T15:20:17;1.80;99.90
20442;DHT22;10380;52.102;20.614;2023-12-22T15:22:45;1.80;99.90
20442;DHT22;10380;52.102;20.614;2023-12-22T15:25:12;1.90;99.90
20442;DHT22;10380;52.102;20.614;2023-12-22T15:27:39;1.90;99.90
20442;DHT22;10380;52.102;20.614;2023-12-22T15:30:07;1.90;99.90
20442;DHT22;10380;52.102;20.614;2023-12-22T15:32:34;1.80;99.90
20442;DHT22;10380;52.102;20.614;2023-12-22T15:35:02;1.80;99.90
20442;DHT22;10380;52.102;20.614;2023-12-22T15:37:29;1.80;99.90
20442;DHT22;10380;52.102;20.614;2023-12-22T15:39:59;1.70;99.90